sensor_id;sensor_type;location;lat;lon;timestamp;pressure;altitude;pressure_sealevel;temperature
19196;BMP280;9730;48.926;11.376;2022-07-06T00:00:04;97691.00;;;13.52
19196;BMP280;9730;48.926;11.376;2022-07-06T00:02:30;97702.41;;;13.28
19196;BMP280;9730;48.926;11.376;2022-07-06T00:04:57;97705.19;;;13.55
19196;BMP280;9730;48.926;11.376;2022-07-06T00:07:23;97697.72;;;13.67
19196;BMP280;9730;48.926;11.376;2022-07-06T00:09:50;97702.19;;;13.48
19196;BMP280;9730;48.926;11.376;2022-07-06T00:12:16;97706.66;;;13.43
19196;BMP280;9730;48.926;11.376;2022-07-06T00:14:44;97695.97;;;13.54
19196;BMP280;9730;48.926;11.376;2022-07-06T00:17:11;97704.22;;;13.27
19196;BMP280;9730;48.926;11.376;2022-07-06T00:19:37;97709.38;;;12.94
19196;BMP280;9730;48.926;11.376;2022-07-06T00:22:04;97706.94;;;13.08
19196;BMP280;9730;48.926;11.376;2022-07-06T00:24:30;97708.41;;;13.27
19196;BMP280;9730;48.926;11.376;2022-07-06T00:26:57;97711.81;;;13.11
19196;BMP280;9730;48.926;11.376;2022-07-06T00:29:23;97716.06;;;13.11
19196;BMP280;9730;48.926;11.376;2022-07-06T00:31:51;97714.44;;;12.94
19196;BMP280;9730;48.926;11.376;2022-07-06T00:34:17;97717.81;;;12.78
19196;BMP280;9730;48.926;11.376;2022-07-06T00:36:44;97715.09;;;12.81
19196;BMP280;9730;48.926;11.376;2022-07-06T00:39:10;97718.97;;;12.88
19196;BMP280;9730;48.926;11.376;2022-07-06T00:41:37;97718.41;;;12.66
19196;BMP280;9730;48.926;11.376;2022-07-06T00:44:07;97716.47;;;12.71
19196;BMP280;9730;48.926;11.376;2022-07-06T00:46:34;97714.44;;;12.45
19196;BMP280;9730;48.926;11.376;2022-07-06T00:49:02;97715.47;;;12.41
19196;BMP280;9730;48.926;11.376;2022-07-06T00:51:30;97709.97;;;12.33
19196;BMP280;9730;48.926;11.376;2022-07-06T00:53:58;97713.56;;;12.46
19196;BMP280;9730;48.926;11.376;2022-07-06T00:56:25;97711.81;;;12.79
19196;BMP280;9730;48.926;11.376;2022-07-06T00:58:54;97711.00;;;12.78
19196;BMP280;9730;48.926;11.376;2022-07-06T01:01:20;97706.25;;;12.89
19196;BMP280;9730;48.926;11.376;2022-07-06T01:03:47;97706.66;;;12.65
19196;BMP280;9730;48.926;11.376;2022-07-06T01:06:15;97705.59;;;12.69
19196;BMP280;9730;48.926;11.376;2022-07-06T01:08:42;97711.50;;;12.70
19196;BMP280;9730;48.926;11.376;2022-07-06T01:11:08;97709.81;;;12.85
19196;BMP280;9730;48.926;11.376;2022-07-06T01:13:35;97701.78;;;12.77
19196;BMP280;9730;48.926;11.376;2022-07-06T01:16:01;97700.34;;;12.57
19196;BMP280;9730;48.926;11.376;2022-07-06T01:18:28;97703.22;;;12.17
19196;BMP280;9730;48.926;11.376;2022-07-06T01:21:11;97704.84;;;12.18
19196;BMP280;9730;48.926;11.376;2022-07-06T01:23:39;97709.91;;;12.52
19196;BMP280;9730;48.926;11.376;2022-07-06T01:26:09;97705.06;;;12.30
19196;BMP280;9730;48.926;11.376;2022-07-06T01:28:35;97701.97;;;12.25
19196;BMP280;9730;48.926;11.376;2022-07-06T01:31:01;97703.59;;;11.93
19196;BMP280;9730;48.926;11.376;2022-07-06T01:33:28;97710.16;;;11.80
19196;BMP280;9730;48.926;11.376;2022-07-06T01:35:54;97701.22;;;12.07
19196;BMP280;9730;48.926;11.376;2022-07-06T01:38:24;97702.41;;;12.17
19196;BMP280;9730;48.926;11.376;2022-07-06T01:40:50;97700.31;;;12.24
19196;BMP280;9730;48.926;11.376;2022-07-06T01:43:18;97700.81;;;12.48
19196;BMP280;9730;48.926;11.376;2022-07-06T01:45:44;97707.63;;;12.14
19196;BMP280;9730;48.926;11.376;2022-07-06T01:48:12;97702.09;;;11.72
19196;BMP280;9730;48.926;11.376;2022-07-06T01:50:38;97697.81;;;12.08
19196;BMP280;9730;48.926;11.376;2022-07-06T01:53:05;97705.25;;;12.11
19196;BMP280;9730;48.926;11.376;2022-07-06T01:55:33;97698.44;;;12.28
19196;BMP280;9730;48.926;11.376;2022-07-06T01:57:59;97708.00;;;12.23
19196;BMP280;9730;48.926;11.376;2022-07-06T02:00:26;97706.88;;;11.78
19196;BMP280;9730;48.926;11.376;2022-07-06T02:02:53;97706.69;;;11.64
19196;BMP280;9730;48.926;11.376;2022-07-06T02:05:19;97707.97;;;11.72
19196;BMP280;9730;48.926;11.376;2022-07-06T02:07:46;97708.81;;;11.73
19196;BMP280;9730;48.926;11.376;2022-07-06T02:10:13;97708.50;;;11.62
19196;BMP280;9730;48.926;11.376;2022-07-06T02:12:42;97712.56;;;11.65
19196;BMP280;9730;48.926;11.376;2022-07-06T02:15:09;97712.78;;;11.77
19196;BMP280;9730;48.926;11.376;2022-07-06T02:17:37;97710.81;;;11.83
19196;BMP280;9730;48.926;11.376;2022-07-06T02:20:05;97705.34;;;11.57
19196;BMP280;9730;48.926;11.376;2022-07-06T02:22:32;97707.81;;;11.22
19196;BMP280;9730;48.926;11.376;2022-07-06T02:25:00;97717.06;;;11.40
19196;BMP280;9730;48.926;11.376;2022-07-06T02:27:26;97722.50;;;11.32
19196;BMP280;9730;48.926;11.376;2022-07-06T02:29:55;97712.50;;;11.48
19196;BMP280;9730;48.926;11.376;2022-07-06T02:32:21;97718.06;;;11.37
19196;BMP280;9730;48.926;11.376;2022-07-06T02:34:49;97721.19;;;11.24
19196;BMP280;9730;48.926;11.376;2022-07-06T02:37:16;97723.72;;;10.87
19196;BMP280;9730;48.926;11.376;2022-07-06T02:39:42;97721.75;;;11.12
19196;BMP280;9730;48.926;11.376;2022-07-06T02:42:09;97728.28;;;11.34
19196;BMP280;9730;48.926;11.376;2022-07-06T02:44:36;97726.81;;;11.30
19196;BMP280;9730;48.926;11.376;2022-07-06T02:47:04;97728.56;;;11.10
19196;BMP280;9730;48.926;11.376;2022-07-06T02:49:32;97728.50;;;11.30
19196;BMP280;9730;48.926;11.376;2022-07-06T02:51:59;97733.22;;;11.37
19196;BMP280;9730;48.926;11.376;2022-07-06T02:54:25;97728.31;;;11.53
19196;BMP280;9730;48.926;11.376;2022-07-06T02:56:52;97729.72;;;11.58
19196;BMP280;9730;48.926;11.376;2022-07-06T02:59:20;97733.72;;;11.44
19196;BMP280;9730;48.926;11.376;2022-07-06T03:01:46;97735.41;;;11.26
19196;BMP280;9730;48.926;11.376;2022-07-06T03:04:14;97742.06;;;11.46
19196;BMP280;9730;48.926;11.376;2022-07-06T03:06:41;97741.88;;;11.32
19196;BMP280;9730;48.926;11.376;2022-07-06T03:09:08;97741.94;;;10.94
19196;BMP280;9730;48.926;11.376;2022-07-06T03:11:36;97742.59;;;10.79
19196;BMP280;9730;48.926;11.376;2022-07-06T03:14:04;97739.63;;;11.08
19196;BMP280;9730;48.926;11.376;2022-07-06T03:16:33;97744.88;;;11.03
19196;BMP280;9730;48.926;11.376;2022-07-06T03:19:00;97735.25;;;11.29
19196;BMP280;9730;48.926;11.376;2022-07-06T03:21:28;97739.22;;;11.53
19196;BMP280;9730;48.926;11.376;2022-07-06T03:23:55;97743.38;;;11.54
19196;BMP280;9730;48.926;11.376;2022-07-06T03:26:23;97745.91;;;11.54
19196;BMP280;9730;48.926;11.376;2022-07-06T03:28:50;97754.16;;;11.39
19196;BMP280;9730;48.926;11.376;2022-07-06T03:31:17;97746.00;;;11.53
19196;BMP280;9730;48.926;11.376;2022-07-06T03:33:45;97749.72;;;11.63
19196;BMP280;9730;48.926;11.376;2022-07-06T03:36:12;97745.06;;;11.35
19196;BMP280;9730;48.926;11.376;2022-07-06T03:38:40;97750.44;;;10.73
19196;BMP280;9730;48.926;11.376;2022-07-06T03:41:07;97756.56;;;10.67
19196;BMP280;9730;48.926;11.376;2022-07-06T03:43:35;97756.47;;;11.07
19196;BMP280;9730;48.926;11.376;2022-07-06T03:46:02;97753.88;;;11.09
19196;BMP280;9730;48.926;11.376;2022-07-06T03:48:30;97755.84;;;11.20
19196;BMP280;9730;48.926;11.376;2022-07-06T03:50:57;97759.06;;;11.06
19196;BMP280;9730;48.926;11.376;2022-07-06T03:53:24;97764.69;;;11.30
19196;BMP280;9730;48.926;11.376;2022-07-06T03:55:52;97766.38;;;10.93
19196;BMP280;9730;48.926;11.376;2022-07-06T03:58:33;97767.38;;;11.08
19196;BMP280;9730;48.926;11.376;2022-07-06T04:01:00;97772.31;;;11.29
19196;BMP280;9730;48.926;11.376;2022-07-06T04:03:27;97764.59;;;10.95
19196;BMP280;9730;48.926;11.376;2022-07-06T04:05:54;97763.50;;;11.37
19196;BMP280;9730;48.926;11.376;2022-07-06T04:08:20;97759.97;;;11.60
19196;BMP280;9730;48.926;11.376;2022-07-06T04:10:54;97758.03;;;11.83
19196;BMP280;9730;48.926;11.376;2022-07-06T04:13:21;97768.94;;;11.83
19196;BMP280;9730;48.926;11.376;2022-07-06T04:15:50;97772.91;;;12.06
19196;BMP280;9730;48.926;11.376;2022-07-06T04:18:17;97780.44;;;12.24
19196;BMP280;9730;48.926;11.376;2022-07-06T04:20:49;97786.47;;;12.05
19196;BMP280;9730;48.926;11.376;2022-07-06T04:23:17;97787.25;;;12.05
19196;BMP280;9730;48.926;11.376;2022-07-06T04:25:44;97784.81;;;12.04
19196;BMP280;9730;48.926;11.376;2022-07-06T04:28:12;97778.28;;;12.17
19196;BMP280;9730;48.926;11.376;2022-07-06T04:30:39;97786.53;;;12.37
19196;BMP280;9730;48.926;11.376;2022-07-06T04:33:09;97789.78;;;12.05
19196;BMP280;9730;48.926;11.376;2022-07-06T04:35:37;97789.72;;;12.23
19196;BMP280;9730;48.926;11.376;2022-07-06T04:38:03;97791.81;;;12.32
19196;BMP280;9730;48.926;11.376;2022-07-06T04:40:31;97785.00;;;12.67
19196;BMP280;9730;48.926;11.376;2022-07-06T04:43:01;97799.53;;;12.29
19196;BMP280;9730;48.926;11.376;2022-07-06T04:45:30;97782.63;;;12.80
19196;BMP280;9730;48.926;11.376;2022-07-06T04:47:58;97787.03;;;12.94
19196;BMP280;9730;48.926;11.376;2022-07-06T04:50:25;97796.25;;;12.95
19196;BMP280;9730;48.926;11.376;2022-07-06T04:52:54;97785.56;;;13.53
19196;BMP280;9730;48.926;11.376;2022-07-06T04:55:21;97799.63;;;13.58
19196;BMP280;9730;48.926;11.376;2022-07-06T04:57:49;97781.94;;;13.72
19196;BMP280;9730;48.926;11.376;2022-07-06T05:00:17;97781.13;;;13.87
19196;BMP280;9730;48.926;11.376;2022-07-06T05:02:47;97793.16;;;13.37
19196;BMP280;9730;48.926;11.376;2022-07-06T05:05:14;97793.06;;;13.54
19196;BMP280;9730;48.926;11.376;2022-07-06T05:07:41;97793.31;;;13.50
19196;BMP280;9730;48.926;11.376;2022-07-06T05:10:09;97800.75;;;13.83
19196;BMP280;9730;48.926;11.376;2022-07-06T05:12:38;97797.63;;;13.94
19196;BMP280;9730;48.926;11.376;2022-07-06T05:15:06;97786.69;;;14.38
19196;BMP280;9730;48.926;11.376;2022-07-06T05:17:34;97798.22;;;14.43
19196;BMP280;9730;48.926;11.376;2022-07-06T05:20:03;97792.16;;;14.46
19196;BMP280;9730;48.926;11.376;2022-07-06T05:22:32;97804.09;;;14.15
19196;BMP280;9730;48.926;11.376;2022-07-06T05:25:00;97804.28;;;14.41
19196;BMP280;9730;48.926;11.376;2022-07-06T05:27:27;97807.94;;;14.65
19196;BMP280;9730;48.926;11.376;2022-07-06T05:29:53;97800.31;;;14.22
19196;BMP280;9730;48.926;11.376;2022-07-06T05:32:20;97810.88;;;14.73
19196;BMP280;9730;48.926;11.376;2022-07-06T05:34:47;97801.72;;;14.98
19196;BMP280;9730;48.926;11.376;2022-07-06T05:37:15;97795.41;;;15.19
19196;BMP280;9730;48.926;11.376;2022-07-06T05:39:42;97797.28;;;14.44
19196;BMP280;9730;48.926;11.376;2022-07-06T05:42:11;97803.19;;;13.85
19196;BMP280;9730;48.926;11.376;2022-07-06T05:44:39;97808.19;;;13.86
19196;BMP280;9730;48.926;11.376;2022-07-06T05:47:06;97809.19;;;14.44
19196;BMP280;9730;48.926;11.376;2022-07-06T05:49:51;97797.03;;;15.06
19196;BMP280;9730;48.926;11.376;2022-07-06T05:52:39;97802.31;;;15.31
19196;BMP280;9730;48.926;11.376;2022-07-06T05:55:06;97800.81;;;15.94
19196;BMP280;9730;48.926;11.376;2022-07-06T05:57:33;97781.53;;;17.55
19196;BMP280;9730;48.926;11.376;2022-07-06T06:00:00;97770.16;;;18.86
19196;BMP280;9730;48.926;11.376;2022-07-06T06:02:36;97760.66;;;19.95
19196;BMP280;9730;48.926;11.376;2022-07-06T06:05:03;97748.44;;;21.50
19196;BMP280;9730;48.926;11.376;2022-07-06T06:07:29;97743.59;;;22.60
19196;BMP280;9730;48.926;11.376;2022-07-06T06:09:57;97746.47;;;23.93
19196;BMP280;9730;48.926;11.376;2022-07-06T06:12:24;97743.00;;;23.67
19196;BMP280;9730;48.926;11.376;2022-07-06T06:14:51;97740.81;;;24.92
19196;BMP280;9730;48.926;11.376;2022-07-06T06:17:17;97737.22;;;25.92
19196;BMP280;9730;48.926;11.376;2022-07-06T06:19:44;97743.69;;;25.88
19196;BMP280;9730;48.926;11.376;2022-07-06T06:22:10;97745.06;;;24.50
19196;BMP280;9730;48.926;11.376;2022-07-06T06:24:37;97746.94;;;24.40
19196;BMP280;9730;48.926;11.376;2022-07-06T06:27:05;97751.34;;;25.23
19196;BMP280;9730;48.926;11.376;2022-07-06T06:29:32;97755.69;;;24.47
19196;BMP280;9730;48.926;11.376;2022-07-06T06:31:58;97753.16;;;25.31
19196;BMP280;9730;48.926;11.376;2022-07-06T06:34:25;97729.06;;;26.36
19196;BMP280;9730;48.926;11.376;2022-07-06T06:36:51;97745.31;;;25.48
19196;BMP280;9730;48.926;11.376;2022-07-06T06:39:18;97744.41;;;24.48
19196;BMP280;9730;48.926;11.376;2022-07-06T06:41:44;97748.34;;;24.85
19196;BMP280;9730;48.926;11.376;2022-07-06T06:44:12;97734.59;;;25.27
19196;BMP280;9730;48.926;11.376;2022-07-06T06:46:39;97759.56;;;23.28
19196;BMP280;9730;48.926;11.376;2022-07-06T06:49:06;97738.03;;;24.85
19196;BMP280;9730;48.926;11.376;2022-07-06T06:51:33;97736.78;;;25.15
19196;BMP280;9730;48.926;11.376;2022-07-06T06:53:59;97733.66;;;25.70
19196;BMP280;9730;48.926;11.376;2022-07-06T06:56:26;97732.88;;;26.96
19196;BMP280;9730;48.926;11.376;2022-07-06T06:58:53;97735.69;;;27.25
19196;BMP280;9730;48.926;11.376;2022-07-06T07:01:20;97735.81;;;26.22
19196;BMP280;9730;48.926;11.376;2022-07-06T07:03:47;97720.41;;;28.28
19196;BMP280;9730;48.926;11.376;2022-07-06T07:06:14;97715.09;;;28.95
19196;BMP280;9730;48.926;11.376;2022-07-06T07:08:40;97716.16;;;29.29
19196;BMP280;9730;48.926;11.376;2022-07-06T07:11:07;97728.97;;;27.54
19196;BMP280;9730;48.926;11.376;2022-07-06T07:13:33;97729.81;;;27.38
19196;BMP280;9730;48.926;11.376;2022-07-06T07:16:00;97730.34;;;26.32
19196;BMP280;9730;48.926;11.376;2022-07-06T07:18:28;97712.69;;;28.20
19196;BMP280;9730;48.926;11.376;2022-07-06T07:20:54;97706.69;;;29.71
19196;BMP280;9730;48.926;11.376;2022-07-06T07:23:21;97717.69;;;28.44
19196;BMP280;9730;48.926;11.376;2022-07-06T07:25:47;97700.00;;;30.66
19196;BMP280;9730;48.926;11.376;2022-07-06T07:28:14;97724.25;;;28.10
19196;BMP280;9730;48.926;11.376;2022-07-06T07:30:40;97718.28;;;28.32
19196;BMP280;9730;48.926;11.376;2022-07-06T07:33:07;97727.31;;;27.15
19196;BMP280;9730;48.926;11.376;2022-07-06T07:35:35;97700.31;;;29.74
19196;BMP280;9730;48.926;11.376;2022-07-06T07:38:01;97702.38;;;30.13
19196;BMP280;9730;48.926;11.376;2022-07-06T07:40:28;97695.91;;;31.12
19196;BMP280;9730;48.926;11.376;2022-07-06T07:42:55;97686.44;;;32.17
19196;BMP280;9730;48.926;11.376;2022-07-06T07:45:21;97692.28;;;32.19
19196;BMP280;9730;48.926;11.376;2022-07-06T07:47:48;97738.56;;;26.04
19196;BMP280;9730;48.926;11.376;2022-07-06T07:50:14;97722.19;;;26.99
19196;BMP280;9730;48.926;11.376;2022-07-06T07:52:42;97708.81;;;29.04
19196;BMP280;9730;48.926;11.376;2022-07-06T07:55:09;97723.88;;;27.22
19196;BMP280;9730;48.926;11.376;2022-07-06T07:57:36;97728.50;;;25.85
19196;BMP280;9730;48.926;11.376;2022-07-06T08:00:03;97713.75;;;28.03
19196;BMP280;9730;48.926;11.376;2022-07-06T08:02:36;97685.97;;;31.28
19196;BMP280;9730;48.926;11.376;2022-07-06T08:05:04;97687.22;;;31.39
19196;BMP280;9730;48.926;11.376;2022-07-06T08:07:30;97675.22;;;32.62
19196;BMP280;9730;48.926;11.376;2022-07-06T08:09:58;97682.94;;;31.78
19196;BMP280;9730;48.926;11.376;2022-07-06T08:12:25;97676.34;;;31.82
19196;BMP280;9730;48.926;11.376;2022-07-06T08:14:51;97674.56;;;32.79
19196;BMP280;9730;48.926;11.376;2022-07-06T08:17:17;97665.09;;;34.22
19196;BMP280;9730;48.926;11.376;2022-07-06T08:19:44;97692.00;;;30.20
19196;BMP280;9730;48.926;11.376;2022-07-06T08:22:10;97700.88;;;29.20
19196;BMP280;9730;48.926;11.376;2022-07-06T08:24:37;97713.41;;;28.06
19196;BMP280;9730;48.926;11.376;2022-07-06T08:27:05;97689.78;;;29.96
19196;BMP280;9730;48.926;11.376;2022-07-06T08:29:31;97714.53;;;27.59
19196;BMP280;9730;48.926;11.376;2022-07-06T08:31:58;97692.84;;;30.27
19196;BMP280;9730;48.926;11.376;2022-07-06T08:34:24;97678.81;;;32.28
19196;BMP280;9730;48.926;11.376;2022-07-06T08:36:51;97676.47;;;33.29
19196;BMP280;9730;48.926;11.376;2022-07-06T08:39:18;97683.81;;;32.36
19196;BMP280;9730;48.926;11.376;2022-07-06T08:41:45;97716.25;;;29.07
19196;BMP280;9730;48.926;11.376;2022-07-06T08:44:14;97705.50;;;29.10
19196;BMP280;9730;48.926;11.376;2022-07-06T08:46:41;97690.03;;;30.43
19196;BMP280;9730;48.926;11.376;2022-07-06T08:49:08;97715.09;;;28.44
19196;BMP280;9730;48.926;11.376;2022-07-06T08:51:38;97702.16;;;28.22
19196;BMP280;9730;48.926;11.376;2022-07-06T08:54:05;97684.78;;;30.91
19196;BMP280;9730;48.926;11.376;2022-07-06T08:56:32;97696.09;;;30.29
19196;BMP280;9730;48.926;11.376;2022-07-06T08:58:59;97690.81;;;30.22
19196;BMP280;9730;48.926;11.376;2022-07-06T09:01:27;97696.66;;;29.68
19196;BMP280;9730;48.926;11.376;2022-07-06T09:03:55;97686.66;;;30.76
19196;BMP280;9730;48.926;11.376;2022-07-06T09:06:24;97702.75;;;29.61
19196;BMP280;9730;48.926;11.376;2022-07-06T09:08:53;97714.69;;;28.33
19196;BMP280;9730;48.926;11.376;2022-07-06T09:11:20;97693.22;;;29.82
19196;BMP280;9730;48.926;11.376;2022-07-06T09:13:47;97716.66;;;27.10
19196;BMP280;9730;48.926;11.376;2022-07-06T09:16:15;97717.09;;;27.89
19196;BMP280;9730;48.926;11.376;2022-07-06T09:18:45;97704.31;;;28.10
19196;BMP280;9730;48.926;11.376;2022-07-06T09:21:12;97720.94;;;26.79
19196;BMP280;9730;48.926;11.376;2022-07-06T09:23:53;97713.28;;;27.47
19196;BMP280;9730;48.926;11.376;2022-07-06T09:26:19;97710.44;;;26.65
19196;BMP280;9730;48.926;11.376;2022-07-06T09:28:46;97702.13;;;29.24
19196;BMP280;9730;48.926;11.376;2022-07-06T09:31:13;97701.66;;;28.41
19196;BMP280;9730;48.926;11.376;2022-07-06T09:33:54;97686.50;;;31.58
19196;BMP280;9730;48.926;11.376;2022-07-06T09:36:39;97693.72;;;30.34
19196;BMP280;9730;48.926;11.376;2022-07-06T09:39:21;97694.75;;;29.77
19196;BMP280;9730;48.926;11.376;2022-07-06T09:41:50;97690.78;;;30.91
19196;BMP280;9730;48.926;11.376;2022-07-06T09:44:25;97700.34;;;29.59
19196;BMP280;9730;48.926;11.376;2022-07-06T09:46:52;97688.75;;;31.73
19196;BMP280;9730;48.926;11.376;2022-07-06T09:49:21;97678.41;;;32.25
19196;BMP280;9730;48.926;11.376;2022-07-06T09:51:49;97702.88;;;28.08
19196;BMP280;9730;48.926;11.376;2022-07-06T09:54:16;97721.97;;;26.38
19196;BMP280;9730;48.926;11.376;2022-07-06T09:56:43;97726.09;;;26.08
19196;BMP280;9730;48.926;11.376;2022-07-06T09:59:15;97721.13;;;25.49
19196;BMP280;9730;48.926;11.376;2022-07-06T10:01:42;97700.81;;;28.62
19196;BMP280;9730;48.926;11.376;2022-07-06T10:04:10;97702.28;;;28.79
19196;BMP280;9730;48.926;11.376;2022-07-06T10:06:39;97694.41;;;31.37
19196;BMP280;9730;48.926;11.376;2022-07-06T10:09:06;97675.53;;;33.60
19196;BMP280;9730;48.926;11.376;2022-07-06T10:11:35;97666.06;;;33.96
19196;BMP280;9730;48.926;11.376;2022-07-06T10:14:04;97680.16;;;31.86
19196;BMP280;9730;48.926;11.376;2022-07-06T10:16:33;97696.03;;;29.66
19196;BMP280;9730;48.926;11.376;2022-07-06T10:19:02;97691.72;;;31.17
19196;BMP280;9730;48.926;11.376;2022-07-06T10:21:30;97690.97;;;31.89
19196;BMP280;9730;48.926;11.376;2022-07-06T10:23:59;97670.88;;;33.12
19196;BMP280;9730;48.926;11.376;2022-07-06T10:26:27;97685.00;;;32.92
19196;BMP280;9730;48.926;11.376;2022-07-06T10:28:54;97697.00;;;30.69
19196;BMP280;9730;48.926;11.376;2022-07-06T10:31:21;97711.69;;;28.43
19196;BMP280;9730;48.926;11.376;2022-07-06T10:33:48;97702.28;;;29.37
19196;BMP280;9730;48.926;11.376;2022-07-06T10:36:15;97688.19;;;30.91
19196;BMP280;9730;48.926;11.376;2022-07-06T10:38:46;97693.38;;;30.91
19196;BMP280;9730;48.926;11.376;2022-07-06T10:41:16;97695.25;;;30.01
19196;BMP280;9730;48.926;11.376;2022-07-06T10:43:43;97719.25;;;28.08
19196;BMP280;9730;48.926;11.376;2022-07-06T10:46:11;97698.16;;;28.85
19196;BMP280;9730;48.926;11.376;2022-07-06T10:48:40;97689.19;;;30.42
19196;BMP280;9730;48.926;11.376;2022-07-06T10:51:07;97687.00;;;31.00
19196;BMP280;9730;48.926;11.376;2022-07-06T10:53:34;97689.84;;;30.71
19196;BMP280;9730;48.926;11.376;2022-07-06T10:56:02;97691.75;;;30.36
19196;BMP280;9730;48.926;11.376;2022-07-06T10:58:41;97690.41;;;30.40
19196;BMP280;9730;48.926;11.376;2022-07-06T11:01:09;97691.88;;;31.03
19196;BMP280;9730;48.926;11.376;2022-07-06T11:03:42;97682.38;;;30.68
19196;BMP280;9730;48.926;11.376;2022-07-06T11:06:11;97711.50;;;27.78
19196;BMP280;9730;48.926;11.376;2022-07-06T11:08:54;97711.06;;;26.75
19196;BMP280;9730;48.926;11.376;2022-07-06T11:11:23;97715.25;;;26.99
19196;BMP280;9730;48.926;11.376;2022-07-06T11:13:59;97708.88;;;27.86
19196;BMP280;9730;48.926;11.376;2022-07-06T11:16:28;97683.75;;;29.40
19196;BMP280;9730;48.926;11.376;2022-07-06T11:19:06;97680.66;;;30.75
19196;BMP280;9730;48.926;11.376;2022-07-06T11:21:34;97688.66;;;30.47
19196;BMP280;9730;48.926;11.376;2022-07-06T11:24:02;97700.22;;;28.89
19196;BMP280;9730;48.926;11.376;2022-07-06T11:26:30;97680.00;;;31.41
19196;BMP280;9730;48.926;11.376;2022-07-06T11:28:59;97680.47;;;31.64
19196;BMP280;9730;48.926;11.376;2022-07-06T11:31:26;97676.28;;;31.16
19196;BMP280;9730;48.926;11.376;2022-07-06T11:33:52;97674.19;;;32.11
19196;BMP280;9730;48.926;11.376;2022-07-06T11:36:20;97687.91;;;30.86
19196;BMP280;9730;48.926;11.376;2022-07-06T11:38:47;97707.66;;;28.19
19196;BMP280;9730;48.926;11.376;2022-07-06T11:41:15;97711.03;;;26.98
19196;BMP280;9730;48.926;11.376;2022-07-06T11:43:42;97707.66;;;26.98
19196;BMP280;9730;48.926;11.376;2022-07-06T11:46:20;97695.66;;;27.73
19196;BMP280;9730;48.926;11.376;2022-07-06T11:48:46;97694.44;;;27.91
19196;BMP280;9730;48.926;11.376;2022-07-06T11:51:13;97673.84;;;29.64
19196;BMP280;9730;48.926;11.376;2022-07-06T11:53:43;97671.81;;;30.43
19196;BMP280;9730;48.926;11.376;2022-07-06T11:56:10;97665.00;;;29.79
19196;BMP280;9730;48.926;11.376;2022-07-06T11:58:39;97692.38;;;28.46
19196;BMP280;9730;48.926;11.376;2022-07-06T12:01:06;97692.00;;;27.90
19196;BMP280;9730;48.926;11.376;2022-07-06T12:03:35;97690.41;;;27.59
19196;BMP280;9730;48.926;11.376;2022-07-06T12:06:02;97694.94;;;26.57
19196;BMP280;9730;48.926;11.376;2022-07-06T12:08:29;97700.91;;;26.18
19196;BMP280;9730;48.926;11.376;2022-07-06T12:10:56;97688.97;;;26.09
19196;BMP280;9730;48.926;11.376;2022-07-06T12:13:23;97689.25;;;25.74
19196;BMP280;9730;48.926;11.376;2022-07-06T12:15:50;97689.19;;;25.66
19196;BMP280;9730;48.926;11.376;2022-07-06T12:18:16;97681.53;;;25.98
19196;BMP280;9730;48.926;11.376;2022-07-06T12:20:44;97698.28;;;25.70
19196;BMP280;9730;48.926;11.376;2022-07-06T12:23:11;97694.50;;;25.08
19196;BMP280;9730;48.926;11.376;2022-07-06T12:25:37;97684.91;;;25.00
19196;BMP280;9730;48.926;11.376;2022-07-06T12:28:04;97683.97;;;25.42
19196;BMP280;9730;48.926;11.376;2022-07-06T12:30:31;97677.44;;;25.15
19196;BMP280;9730;48.926;11.376;2022-07-06T12:33:12;97682.06;;;25.52
19196;BMP280;9730;48.926;11.376;2022-07-06T12:35:39;97686.69;;;25.82
19196;BMP280;9730;48.926;11.376;2022-07-06T12:38:07;97675.06;;;24.62
19196;BMP280;9730;48.926;11.376;2022-07-06T12:40:35;97684.78;;;25.43
19196;BMP280;9730;48.926;11.376;2022-07-06T12:43:02;97680.88;;;25.39
19196;BMP280;9730;48.926;11.376;2022-07-06T12:45:30;97673.19;;;25.55
19196;BMP280;9730;48.926;11.376;2022-07-06T12:47:57;97669.44;;;25.41
19196;BMP280;9730;48.926;11.376;2022-07-06T12:50:30;97672.00;;;25.33
19196;BMP280;9730;48.926;11.376;2022-07-06T12:52:58;97668.28;;;24.95
19196;BMP280;9730;48.926;11.376;2022-07-06T12:55:27;97651.00;;;25.70
19196;BMP280;9730;48.926;11.376;2022-07-06T12:57:54;97672.78;;;26.15
19196;BMP280;9730;48.926;11.376;2022-07-06T13:00:22;97663.91;;;26.41
19196;BMP280;9730;48.926;11.376;2022-07-06T13:02:50;97660.13;;;25.56
19196;BMP280;9730;48.926;11.376;2022-07-06T13:05:22;97676.88;;;25.36
19196;BMP280;9730;48.926;11.376;2022-07-06T13:07:53;97673.75;;;25.25
19196;BMP280;9730;48.926;11.376;2022-07-06T13:10:21;97664.19;;;25.59
19196;BMP280;9730;48.926;11.376;2022-07-06T13:12:49;97662.28;;;25.69
19196;BMP280;9730;48.926;11.376;2022-07-06T13:15:16;97659.88;;;25.75
19196;BMP280;9730;48.926;11.376;2022-07-06T13:17:43;97663.91;;;25.70
19196;BMP280;9730;48.926;11.376;2022-07-06T13:20:12;97663.34;;;25.42
19196;BMP280;9730;48.926;11.376;2022-07-06T13:22:39;97658.16;;;25.42
19196;BMP280;9730;48.926;11.376;2022-07-06T13:25:07;97657.63;;;25.88
19196;BMP280;9730;48.926;11.376;2022-07-06T13:27:33;97657.09;;;26.56
19196;BMP280;9730;48.926;11.376;2022-07-06T13:30:02;97656.56;;;26.76
19196;BMP280;9730;48.926;11.376;2022-07-06T13:32:28;97661.16;;;26.50
19196;BMP280;9730;48.926;11.376;2022-07-06T13:34:55;97645.22;;;26.85
19196;BMP280;9730;48.926;11.376;2022-07-06T13:37:21;97640.84;;;27.32
19196;BMP280;9730;48.926;11.376;2022-07-06T13:39:48;97639.47;;;27.43
19196;BMP280;9730;48.926;11.376;2022-07-06T13:42:14;97643.84;;;27.43
19196;BMP280;9730;48.926;11.376;2022-07-06T13:44:41;97642.19;;;27.20
19196;BMP280;9730;48.926;11.376;2022-07-06T13:47:09;97648.84;;;27.44
19196;BMP280;9730;48.926;11.376;2022-07-06T13:49:36;97643.97;;;27.49
19196;BMP280;9730;48.926;11.376;2022-07-06T13:52:03;97653.19;;;25.65
19196;BMP280;9730;48.926;11.376;2022-07-06T13:54:29;97647.69;;;25.60
19196;BMP280;9730;48.926;11.376;2022-07-06T13:56:56;97649.56;;;26.30
19196;BMP280;9730;48.926;11.376;2022-07-06T13:59:22;97645.44;;;26.68
19196;BMP280;9730;48.926;11.376;2022-07-06T14:01:49;97647.44;;;26.18
19196;BMP280;9730;48.926;11.376;2022-07-06T14:04:17;97626.84;;;26.64
19196;BMP280;9730;48.926;11.376;2022-07-06T14:06:43;97643.25;;;25.70
19196;BMP280;9730;48.926;11.376;2022-07-06T14:09:10;97647.06;;;25.58
19196;BMP280;9730;48.926;11.376;2022-07-06T14:11:37;97643.75;;;25.89